Time;durP1;ratioP1;P1;durP2;ratioP2;P2;SDS_P1;SDS_P2;PMS_P1;PMS_P2;Temp;Humidity;BMP_temperature;BMP_pressure;BME280_temperature;BME280_humidity;BME280_pressure;Samples;Min_cycle;Max_cycle;Signal;HPM_P1;HPM_P2
2022/10/25 00:02:18;;;;;;;1.40;1.13;;;12.80;99.90;;;15.70;59.22;97741.16;4906826;29;20065;-47
2022/10/25 00:04:46;;;;;;;1.55;0.90;;;12.90;99.90;;;15.74;59.61;97750.50;4890182;29;20365;-46
2022/10/25 00:07:14;;;;;;;3.05;1.27;;;12.90;99.90;;;15.77;59.32;97754.69;4906800;29;20070;-46
2022/10/25 00:09:42;;;;;;;2.72;0.90;;;12.90;99.90;;;15.74;59.33;97751.34;4906736;29;20060;-47
2022/10/25 00:12:10;;;;;;;3.03;0.93;;;12.90;99.90;;;15.74;59.25;97746.00;4906911;29;20467;-45
2022/10/25 00:14:38;;;;;;;3.00;1.00;;;12.90;99.90;;;15.75;59.21;97747.63;4906231;29;20058;-48
2022/10/25 00:17:06;;;;;;;1.20;0.80;;;12.90;99.90;;;15.69;59.32;97744.88;4906521;29;20059;-47
2022/10/25 00:19:34;;;;;;;1.08;0.90;;;12.90;99.90;;;15.73;59.26;97744.31;4906185;29;20052;-46
2022/10/25 00:22:02;;;;;;;1.60;1.10;;;12.90;99.90;;;15.71;59.18;97740.13;4906620;29;20053;-45
2022/10/25 00:24:30;;;;;;;4.38;0.98;;;12.90;99.90;;;15.74;58.97;97737.94;4906094;29;20055;-45
2022/10/25 00:26:58;;;;;;;2.00;0.90;;;12.90;99.90;;;15.80;59.10;97735.50;4906649;29;20056;-48
2022/10/25 00:29:26;;;;;;;2.00;1.02;;;13.00;99.90;;;15.81;58.86;97740.66;4906467;29;20048;-47
2022/10/25 00:31:54;;;;;;;1.42;1.00;;;12.90;99.90;;;15.85;59.10;97749.19;4907138;29;20059;-46
2022/10/25 00:34:21;;;;;;;2.67;1.20;;;13.00;99.90;;;15.87;58.62;97744.44;4899560;29;20238;-46
2022/10/25 00:36:49;;;;;;;1.92;1.00;;;13.00;99.90;;;15.90;58.60;97744.06;4886623;29;20037;-47
2022/10/25 00:39:17;;;;;;;2.92;1.00;;;13.00;99.90;;;15.92;58.52;97740.16;4887594;29;20048;-48
2022/10/25 00:41:45;;;;;;;1.42;0.80;;;13.00;99.90;;;15.91;58.54;97743.84;4887729;29;20053;-46
2022/10/25 00:44:35;;;;;;;2.70;1.10;;;13.00;99.90;;;15.87;58.68;97747.94;4887906;29;20049;-45
2022/10/25 00:47:21;;;;;;;2.50;1.10;;;13.00;99.90;;;15.90;58.69;97747.56;4885806;29;20056;-49
2022/10/25 00:49:57;;;;;;;4.05;0.95;;;13.00;99.90;;;15.84;58.81;97742.13;4887766;29;20335;-48
2022/10/25 00:52:28;;;;;;;1.75;0.95;;;13.00;99.90;;;15.83;58.96;97745.84;4887745;29;20060;-46
2022/10/25 00:54:57;;;;;;;2.38;0.90;;;13.00;99.90;;;15.79;58.92;97745.41;4886175;29;20053;-47
2022/10/25 00:57:41;;;;;;;3.15;1.35;;;12.90;99.90;;;15.76;58.89;97748.50;4889003;29;20361;-47
2022/10/25 01:00:10;;;;;;;;;;;13.00;99.90;;;15.86;58.54;97743.63;4890323;29;20049;-46
2022/10/25 01:02:38;;;;;;;3.63;1.30;;;13.00;99.90;;;15.85;58.75;97735.75;4891095;29;20010;-48
2022/10/25 01:05:08;;;;;;;2.10;1.13;;;12.90;99.90;;;15.83;58.74;97744.00;4890463;29;20053;-48
2022/10/25 01:07:37;;;;;;;2.13;1.10;;;13.00;99.90;;;15.84;58.87;97751.03;4890879;29;20048;-46
2022/10/25 01:10:05;;;;;;;1.83;1.30;;;13.00;99.90;;;15.80;58.76;97738.16;4890974;29;20159;-47
2022/10/25 01:12:33;;;;;;;3.60;1.40;;;13.00;99.90;;;15.89;58.60;97742.41;4890932;29;20049;-47
2022/10/25 01:15:03;;;;;;;5.03;1.20;;;13.10;99.90;;;15.83;58.82;97740.50;4890593;29;20057;-47
2022/10/25 01:17:56;;;;;;;1.52;1.30;;;13.10;99.90;;;15.90;58.54;97733.34;4889638;29;20055;-47
2022/10/25 01:21:20;;;;;;;3.10;1.20;;;13.10;99.90;;;15.93;58.47;97741.81;4890681;29;20055;-49
2022/10/25 01:24:28;;;;;;;5.07;1.58;;;13.20;99.90;;;15.93;58.67;97735.63;4889886;29;20339;-46
2022/10/25 01:27:51;;;;;;;2.20;0.90;;;13.10;99.90;;;15.92;58.51;97729.41;4898482;29;20049;-48
2022/10/25 01:30:39;;;;;;;3.08;1.85;;;13.10;99.90;;;15.94;58.63;97746.16;4892539;29;20384;-46
2022/10/25 01:33:25;;;;;;;2.20;1.30;;;13.20;99.90;;;15.98;58.56;97732.38;4916408;29;20058;-48
2022/10/25 01:36:13;;;;;;;1.85;1.20;;;13.20;99.90;;;16.00;58.40;97738.38;4907828;29;20066;-46
2022/10/25 01:39:03;;;;;;;1.92;1.40;;;13.20;99.90;;;15.98;58.36;97738.56;4898898;29;20059;-46
2022/10/25 01:41:52;;;;;;;2.08;1.50;;;13.10;99.90;;;15.93;58.67;97740.97;4908792;29;20045;-49
2022/10/25 01:45:08;;;;;;;3.40;1.42;;;13.10;99.90;;;15.93;58.62;97727.56;4907811;29;20071;-46
2022/10/25 01:47:47;;;;;;;4.40;1.10;;;13.10;99.90;;;15.93;58.52;97727.56;4908939;29;20238;-46
2022/10/25 01:50:23;;;;;;;4.30;1.30;;;13.00;99.90;;;15.93;58.67;97739.13;4907790;29;20354;-47
2022/10/25 01:52:51;;;;;;;3.20;1.65;;;13.10;99.90;;;15.87;58.80;97734.53;4907466;29;20062;-46
2022/10/25 01:55:52;;;;;;;3.00;1.53;;;13.10;99.90;;;15.90;58.82;97730.66;4908475;29;20051;-46
2022/10/25 01:59:33;;;;;;;2.90;1.70;;;13.10;99.90;;;15.87;58.81;97736.38;4909095;29;20078;-49
2022/10/25 02:02:13;;;;;;;3.25;1.50;;;13.10;99.90;;;15.90;58.45;97739.53;4887698;29;20069;-51
2022/10/25 02:05:23;;;;;;;3.00;1.40;;;13.00;99.90;;;15.84;58.64;97737.63;4887724;29;20298;-48
2022/10/25 02:08:40;;;;;;;4.05;1.83;;;12.90;99.90;;;15.83;58.59;97730.56;4899473;29;20065;-47
2022/10/25 02:11:27;;;;;;;2.72;1.70;;;12.90;99.90;;;15.75;58.60;97730.72;4908547;29;20048;-47
2022/10/25 02:14:26;;;;;;;3.38;1.42;;;12.80;99.90;;;15.73;58.64;97727.38;4907363;29;20051;-48
2022/10/25 02:17:12;;;;;;;5.80;1.70;;;12.80;99.90;;;15.79;58.42;97725.78;4907850;29;20351;-46
2022/10/25 02:19:50;;;;;;;3.50;1.60;;;12.80;99.90;;;15.69;58.81;97740.31;4907444;29;20060;-49
2022/10/25 02:22:23;;;;;;;3.53;1.27;;;12.80;99.90;;;15.74;58.67;97732.56;4907499;29;20242;-46
2022/10/25 02:24:54;;;;;;;2.35;1.30;;;12.80;99.90;;;15.85;58.67;97735.75;4906851;29;20056;-47
2022/10/25 02:27:25;;;;;;;3.95;1.40;;;12.90;99.90;;;15.88;58.33;97732.69;4908015;29;20134;-46
2022/10/25 02:29:55;;;;;;;4.30;1.42;;;12.90;99.90;;;15.84;58.72;97731.38;4906830;29;20062;-47
2022/10/25 02:32:24;;;;;;;1.80;1.42;;;12.90;99.90;;;15.87;58.77;97720.28;4908735;29;20054;-48
2022/10/25 02:34:52;;;;;;;3.90;1.30;;;12.90;99.90;;;15.92;58.59;97723.22;4921771;29;20265;-49
2022/10/25 02:37:20;;;;;;;4.35;1.35;;;13.00;99.90;;;15.93;58.58;97722.19;4922656;29;20050;-46
2022/10/25 02:39:49;;;;;;;3.60;1.50;;;13.00;99.90;;;15.90;58.43;97723.41;4907878;29;20052;-48
2022/10/25 02:42:17;;;;;;;3.47;1.42;;;13.00;99.90;;;15.93;58.51;97728.38;4908021;29;20227;-47
2022/10/25 02:44:45;;;;;;;3.42;1.35;;;13.00;99.90;;;15.92;58.36;97725.91;4907478;29;20032;-46
2022/10/25 02:47:13;;;;;;;2.65;1.15;;;13.00;99.90;;;15.93;58.45;97724.88;4908435;29;20056;-47
2022/10/25 02:49:41;;;;;;;1.48;1.23;;;13.00;99.90;;;15.91;58.57;97717.00;4907528;29;20084;-49
2022/10/25 02:52:09;;;;;;;2.30;1.20;;;13.00;99.90;;;15.90;58.45;97722.59;4908127;29;20250;-47
2022/10/25 02:54:37;;;;;;;2.53;1.20;;;13.00;99.90;;;15.83;58.72;97714.47;4907483;29;20334;-46
2022/10/25 02:57:04;;;;;;;3.53;2.83;;;12.90;99.90;;;15.78;58.62;97724.13;4907730;29;20048;-50
2022/10/25 02:59:32;;;;;;;4.65;1.50;;;12.90;99.90;;;15.85;58.57;97720.47;4891372;29;20057;-47
2022/10/25 03:02:00;;;;;;;3.13;1.35;;;12.90;99.90;;;15.88;58.48;97724.66;4907808;29;20052;-49
2022/10/25 03:04:28;;;;;;;5.60;1.80;;;13.00;99.90;;;15.89;58.55;97726.28;4906050;29;20057;-52
2022/10/25 03:06:57;;;;;;;4.35;1.40;;;13.00;99.90;;;15.87;58.53;97721.09;4907126;29;20055;-47
2022/10/25 03:09:24;;;;;;;3.95;1.27;;;13.00;99.90;;;15.86;58.54;97730.19;4907753;29;20044;-49
2022/10/25 03:11:52;;;;;;;3.10;1.80;;;12.90;99.90;;;15.86;58.65;97721.31;4905930;29;20376;-49
2022/10/25 03:14:20;;;;;;;3.28;1.35;;;12.90;99.90;;;15.85;58.55;97725.84;4906529;29;20056;-49
2022/10/25 03:16:48;;;;;;;1.55;1.40;;;12.90;99.90;;;15.87;58.63;97726.47;4906835;29;20062;-47
2022/10/25 03:19:16;;;;;;;3.20;1.40;;;12.90;99.90;;;15.88;58.77;97735.38;4907039;29;20097;-48
2022/10/25 03:21:44;;;;;;;4.22;1.40;;;13.00;99.90;;;15.91;58.58;97730.44;4906770;29;20060;-48
2022/10/25 03:24:12;;;;;;;2.85;1.48;;;13.00;99.90;;;15.87;58.75;97734.53;4906977;29;20117;-48
2022/10/25 03:26:40;;;;;;;1.85;1.30;;;13.00;99.90;;;15.84;58.46;97731.38;4907059;29;20051;-49
2022/10/25 03:29:09;;;;;;;5.55;1.65;;;12.90;99.90;;;15.85;58.71;97727.69;4907289;29;20083;-49
2022/10/25 03:31:37;;;;;;;4.65;1.60;;;12.90;99.90;;;15.88;58.78;97732.69;4906983;29;20058;-50
2022/10/25 03:34:05;;;;;;;4.70;1.45;;;12.90;99.90;;;15.90;58.76;97738.69;4920738;29;20052;-47
2022/10/25 03:36:33;;;;;;;3.50;1.45;;;13.00;99.90;;;15.85;58.66;97735.75;4906682;29;20079;-50
2022/10/25 03:39:01;;;;;;;3.22;1.50;;;12.90;99.90;;;15.84;58.80;97734.06;4906962;29;20055;-47
2022/10/25 03:41:29;;;;;;;2.78;1.50;;;12.90;99.90;;;15.85;58.72;97735.75;4907292;29;20048;-46
2022/10/25 03:43:57;;;;;;;3.03;1.55;;;12.90;99.90;;;15.80;58.67;97741.72;4907113;29;20059;-47
2022/10/25 03:46:25;;;;;;;2.00;1.45;;;12.90;99.90;;;15.77;58.78;97750.13;4888188;29;20048;-49
2022/10/25 03:48:53;;;;;;;2.60;1.20;;;12.90;99.90;;;15.78;58.88;97745.59;4906630;29;20323;-47
2022/10/25 03:51:20;;;;;;;2.35;1.30;;;12.90;99.90;;;15.80;58.86;97755.13;4906486;29;20057;-48
2022/10/25 03:53:49;;;;;;;2.97;1.40;;;12.90;99.90;;;15.78;58.86;97756.31;4906759;29;20060;-48
2022/10/25 03:56:17;;;;;;;2.33;1.60;;;12.90;99.90;;;15.78;58.80;97757.19;4906404;29;20052;-48
2022/10/25 03:58:45;;;;;;;1.95;1.40;;;12.90;99.90;;;15.78;58.92;97757.19;4906775;29;20048;-47
2022/10/25 04:01:13;;;;;;;6.63;1.52;;;12.90;99.90;;;15.82;58.83;97758.44;4907028;29;20067;-48
2022/10/25 04:03:43;;;;;;;4.25;2.03;;;13.00;99.90;;;15.82;58.70;97752.22;4906870;29;20059;-50
2022/10/25 04:06:11;;;;;;;3.75;1.80;;;13.00;99.90;;;15.79;58.71;97761.50;4906326;29;20055;-48
2022/10/25 04:08:39;;;;;;;5.43;1.90;;;12.90;99.90;;;15.75;58.50;97762.91;4906590;29;20055;-49
2022/10/25 04:11:07;;;;;;;4.03;1.98;;;12.70;99.90;;;15.66;58.57;97751.44;4906871;29;20347;-47
2022/10/25 04:13:35;;;;;;;10.88;2.85;;;12.70;99.90;;;15.67;58.65;97757.66;4906755;29;20059;-49
2022/10/25 04:16:07;;;;;;;5.07;2.15;;;12.60;99.90;;;15.60;58.76;97757.56;4906431;29;20049;-48
2022/10/25 04:18:36;;;;;;;4.32;2.13;;;12.50;99.90;;;15.60;58.73;97751.38;4906589;29;20044;-49
2022/10/25 04:21:04;;;;;;;5.10;1.83;;;12.50;99.90;;;15.55;58.70;97754.63;4906772;29;20059;-48
2022/10/25 04:23:32;;;;;;;6.57;1.90;;;12.50;99.90;;;15.47;58.91;97750.22;4906327;29;20062;-47
2022/10/25 04:25:59;;;;;;;4.70;1.85;;;12.40;99.90;;;15.44;58.94;97747.91;4906203;29;20051;-48
2022/10/25 04:28:27;;;;;;;4.13;1.85;;;12.40;99.90;;;15.43;58.96;97750.78;4906599;29;20058;-49
2022/10/25 04:30:55;;;;;;;3.38;2.17;;;12.30;99.90;;;15.41;59.10;97753.66;4907282;29;20062;-47
2022/10/25 04:33:23;;;;;;;5.75;1.77;;;12.30;99.90;;;15.40;58.96;97752.00;4919578;29;20056;-47
2022/10/25 04:35:56;;;;;;;4.32;1.75;;;12.30;99.90;;;15.40;58.96;97754.69;4913185;29;20052;-47
2022/10/25 04:38:24;;;;;;;14.70;2.00;;;12.30;99.90;;;15.36;58.88;97750.72;4910370;29;20059;-47
2022/10/25 04:40:58;;;;;;;3.45;1.73;;;12.30;99.90;;;15.33;58.97;97754.59;4910234;29;20048;-47
2022/10/25 04:43:28;;;;;;;5.55;1.90;;;12.30;99.90;;;15.25;58.91;97751.19;4894377;29;20053;-51
2022/10/25 04:45:59;;;;;;;6.90;2.10;;;12.20;99.90;;;15.17;59.11;97749.44;4909592;29;20243;-50
2022/10/25 04:48:28;;;;;;;6.18;2.40;;;12.00;99.90;;;15.14;59.00;97760.53;4909961;29;20061;-50
2022/10/25 04:50:59;;;;;;;5.75;3.08;;;12.10;99.90;;;15.12;59.07;97758.06;4910161;29;20052;-47
2022/10/25 04:53:27;;;;;;;3.53;2.47;;;12.00;99.90;;;15.11;59.22;97766.28;4909922;29;20057;-46
2022/10/25 04:56:01;;;;;;;4.07;1.95;;;12.00;99.90;;;15.07;59.13;97771.19;4909395;29;20060;-48
2022/10/25 04:58:30;;;;;;;4.95;2.35;;;12.00;99.90;;;15.05;59.18;97770.56;4893018;29;20055;-47
2022/10/25 05:01:12;;;;;;;6.28;2.30;;;11.90;99.90;;;14.98;59.27;97763.44;4909814;29;20040;-48
2022/10/25 05:03:40;;;;;;;3.95;2.42;;;11.90;99.90;;;14.95;59.18;97765.47;4909517;29;20054;-47
2022/10/25 05:06:14;;;;;;;4.68;2.40;;;11.80;99.90;;;14.90;59.22;97764.38;4909581;29;20056;-50
2022/10/25 05:08:45;;;;;;;6.95;2.97;;;11.80;99.90;;;14.92;59.16;97760.47;4910087;29;20334;-48
2022/10/25 05:11:16;;;;;;;11.40;4.30;;;11.80;99.90;;;14.89;59.46;97768.09;4909673;29;20048;-48
2022/10/25 05:13:45;;;;;;;10.45;4.50;;;11.80;99.90;;;14.86;59.43;97771.94;4909762;29;20061;-47
2022/10/25 05:16:20;;;;;;;11.48;4.45;;;11.80;99.90;;;14.83;59.53;97768.78;4909219;29;20380;-51
2022/10/25 05:18:49;;;;;;;8.73;4.15;;;11.70;99.90;;;14.76;59.75;97772.22;4909314;29;20059;-49
2022/10/25 05:21:17;;;;;;;8.38;4.28;;;11.70;99.90;;;14.76;59.70;97771.41;4909106;29;20052;-48
2022/10/25 05:23:46;;;;;;;15.80;4.95;;;11.70;99.90;;;14.77;59.79;97765.00;4909151;29;20060;-47
2022/10/25 05:26:20;;;;;;;11.65;3.72;;;11.70;99.90;;;14.73;59.95;97769.94;4909165;29;20238;-48
2022/10/25 05:28:50;;;;;;;8.07;3.85;;;11.70;99.90;;;14.74;60.02;97770.75;4909784;29;20082;-47
2022/10/25 05:31:23;;;;;;;6.40;3.38;;;11.70;99.90;;;14.73;60.09;97767.25;4909252;29;20049;-49
2022/10/25 05:33:54;;;;;;;8.70;3.92;;;11.70;99.90;;;14.73;60.05;97772.59;4922429;29;20055;-47
2022/10/25 05:36:23;;;;;;;9.95;4.88;;;11.70;99.90;;;14.70;60.04;97769.47;4908528;29;20057;-47
2022/10/25 05:38:51;;;;;;;10.00;4.88;;;11.60;99.90;;;14.72;60.05;97780.81;4909047;29;20048;-47
2022/10/25 05:41:19;;;;;;;12.90;5.60;;;11.60;99.90;;;14.66;60.24;97769.00;4909286;29;20060;-48
2022/10/25 05:43:47;;;;;;;25.08;8.10;;;11.60;99.90;;;14.65;60.08;97764.63;4908693;29;20059;-48
2022/10/25 05:46:22;;;;;;;27.30;10.80;;;11.60;99.90;;;14.67;59.92;97767.13;4908243;29;20350;-49
2022/10/25 05:48:52;;;;;;;34.22;12.75;;;11.70;99.90;;;14.68;60.01;97780.34;4909001;29;20052;-48
2022/10/25 05:51:26;;;;;;;29.75;8.85;;;11.60;99.90;;;14.68;60.14;97775.00;4908635;29;20078;-50
2022/10/25 05:54:12;;;;;;;28.58;10.55;;;11.70;99.90;;;14.72;60.15;97778.97;4908785;29;20372;-48
2022/10/25 05:56:42;;;;;;;22.80;6.25;;;11.70;99.90;;;14.71;60.22;97792.53;4908547;29;20061;-49
2022/10/25 05:59:13;;;;;;;4.90;2.65;;;11.70;99.90;;;14.73;60.25;97786.00;4908818;29;20051;-47
2022/10/25 06:01:44;;;;;;;11.13;4.40;;;11.80;99.90;;;14.79;60.35;97794.31;4907695;29;20075;-47
2022/10/25 06:04:14;;;;;;;10.23;4.80;;;11.90;99.90;;;14.84;60.25;97790.06;4908690;29;20342;-48
2022/10/25 06:06:45;;;;;;;5.65;2.60;;;12.00;99.90;;;14.91;60.18;97798.22;4908376;29;20048;-49
2022/10/25 06:09:13;;;;;;;11.30;4.45;;;12.00;99.90;;;14.93;60.09;97791.63;4908931;29;20067;-53
2022/10/25 06:11:41;;;;;;;9.43;4.75;;;12.10;99.90;;;14.98;59.94;97792.94;4907308;29;20060;-48
2022/10/25 06:14:10;;;;;;;8.50;2.63;;;12.10;99.90;;;14.99;60.09;97794.59;4908171;29;20053;-50
2022/10/25 06:16:38;;;;;;;4.82;2.22;;;12.10;99.90;;;15.02;59.94;97803.09;4908590;29;20062;-50
2022/10/25 06:19:07;;;;;;;4.38;2.15;;;12.10;99.90;;;15.06;59.87;97811.59;4907084;29;20052;-48
2022/10/25 06:21:35;;;;;;;4.68;2.25;;;12.10;99.90;;;15.09;59.78;97811.22;4907236;29;20365;-49
2022/10/25 06:24:04;;;;;;;4.25;2.08;;;12.20;99.90;;;15.12;59.73;97819.75;4906770;29;20129;-48
2022/10/25 06:26:32;;;;;;;4.72;1.70;;;12.20;99.90;;;15.17;59.83;97821.84;4907980;29;20358;-50
2022/10/25 06:29:03;;;;;;;2.45;1.25;;;12.30;99.90;;;15.21;59.81;97838.41;4891642;29;20049;-47
2022/10/25 06:31:32;;;;;;;3.60;1.73;;;12.30;99.90;;;15.21;59.60;97827.69;4908462;29;20049;-47
2022/10/25 06:34:01;;;;;;;3.42;1.90;;;12.30;99.90;;;15.19;59.65;97837.75;4921182;29;20056;-46
2022/10/25 06:36:30;;;;;;;4.80;2.10;;;12.30;99.90;;;15.21;59.67;97833.88;4891850;29;20365;-47
2022/10/25 06:38:59;;;;;;;3.45;1.52;;;12.30;99.90;;;15.21;59.66;97838.41;4907700;29;20152;-47
2022/10/25 06:41:39;;;;;;;3.92;1.55;;;12.30;99.90;;;15.22;59.74;97845.41;4907810;29;20259;-51
2022/10/25 06:44:27;;;;;;;3.00;1.77;;;12.30;99.90;;;15.28;59.54;97858.94;4894283;29;20056;-46
2022/10/25 06:46:55;;;;;;;3.60;1.60;;;12.30;99.90;;;15.31;59.76;97861.22;4905689;29;20048;-48
2022/10/25 06:49:44;;;;;;;3.13;1.55;;;12.40;99.90;;;15.43;59.68;97858.94;4907153;29;20343;-46
2022/10/25 06:52:12;;;;;;;5.40;2.50;;;12.60;99.90;;;15.50;59.55;97864.38;4907845;29;20071;-48
2022/10/25 06:54:39;;;;;;;3.15;1.30;;;12.60;99.90;;;15.58;59.73;97858.06;4906688;29;20294;-47
2022/10/25 06:57:07;;;;;;;2.67;1.35;;;12.70;99.90;;;15.63;59.28;97859.16;4907548;29;20052;-47
2022/10/25 06:59:35;;;;;;;11.63;2.40;;;12.80;99.90;;;15.67;59.27;97870.38;4907379;29;20052;-46
2022/10/25 07:02:03;;;;;;;3.17;1.52;;;12.80;99.90;;;15.71;59.44;97869.78;4906824;29;20259;-46
2022/10/25 07:04:31;;;;;;;7.80;2.03;;;12.80;99.90;;;15.78;59.09;97866.38;4906919;29;20049;-50
2022/10/25 07:07:00;;;;;;;6.78;2.53;;;12.90;99.90;;;15.83;59.26;97874.69;4906920;29;20354;-48
2022/10/25 07:09:28;;;;;;;2.55;1.88;;;13.00;99.90;;;15.90;59.00;97872.94;4891265;29;20355;-48
2022/10/25 07:11:56;;;;;;;4.38;1.70;;;13.10;99.90;;;15.96;58.97;97872.16;4907196;29;20063;-48
2022/10/25 07:14:24;;;;;;;4.95;1.67;;;13.10;99.90;;;16.01;58.86;97874.28;4907041;29;20057;-47
2022/10/25 07:16:52;;;;;;;2.50;1.77;;;13.10;99.90;;;16.11;58.80;97882.84;4906882;29;20497;-46
2022/10/25 07:19:21;;;;;;;5.72;1.70;;;13.30;99.90;;;16.21;58.50;97882.56;4907388;29;20178;-48
2022/10/25 07:21:50;;;;;;;3.85;1.67;;;13.40;99.90;;;16.26;58.58;97886.31;4891123;29;20254;-47
2022/10/25 07:24:18;;;;;;;4.15;2.03;;;13.40;99.90;;;16.28;58.32;97878.88;4906821;29;20048;-52
2022/10/25 07:26:46;;;;;;;5.53;2.78;;;13.40;99.90;;;16.33;58.51;97889.06;4907161;29;20298;-50
2022/10/25 07:29:14;;;;;;;8.02;3.08;;;13.50;99.90;;;16.34;58.58;97885.34;4890518;29;20058;-48
2022/10/25 07:31:43;;;;;;;8.35;3.22;;;13.50;99.90;;;16.37;58.74;97890.34;4907312;29;20053;-50
2022/10/25 07:34:13;;;;;;;5.28;2.90;;;13.50;99.90;;;16.42;58.81;97879.00;4920190;29;20048;-46
2022/10/25 07:36:41;;;;;;;5.35;2.20;;;13.60;99.90;;;16.47;58.64;97888.16;4906951;29;20045;-46
2022/10/25 07:39:09;;;;;;;5.10;2.03;;;13.70;99.90;;;16.49;58.88;97886.13;4905492;29;20052;-48
2022/10/25 07:41:37;;;;;;;7.07;2.40;;;13.70;99.90;;;16.45;58.70;97894.75;4906924;29;20074;-48
2022/10/25 07:44:05;;;;;;;4.32;2.58;;;13.60;99.90;;;16.45;58.89;97902.81;4906637;29;20044;-46
2022/10/25 07:46:37;;;;;;;2.83;1.70;;;13.60;99.90;;;16.49;58.81;97896.88;4907148;29;20055;-50
2022/10/25 07:49:05;;;;;;;3.60;1.88;;;13.70;99.90;;;16.52;58.89;97895.66;4907224;29;20048;-48
2022/10/25 07:51:33;;;;;;;3.88;2.25;;;13.70;99.90;;;16.52;58.85;97892.97;4907077;29;20044;-50
2022/10/25 07:54:01;;;;;;;5.43;1.52;;;13.70;99.90;;;16.57;58.92;97893.22;4906435;29;20052;-48
2022/10/25 07:56:29;;;;;;;6.90;2.55;;;13.70;99.90;;;16.61;58.88;97904.41;4906692;29;20278;-47
2022/10/25 07:58:57;;;;;;;4.15;1.65;;;13.80;99.90;;;16.65;58.92;97901.16;4906978;29;20056;-47
2022/10/25 08:01:27;;;;;;;3.58;1.88;;;13.90;99.90;;;16.71;58.75;97904.91;4906147;29;20057;-49
2022/10/25 08:03:55;;;;;;;4.07;2.15;;;13.90;99.90;;;16.74;58.80;97896.47;4906171;29;20044;-48
2022/10/25 08:06:25;;;;;;;3.55;2.05;;;14.00;99.90;;;16.78;58.75;97899.59;4907287;29;20054;-47
2022/10/25 08:08:53;;;;;;;3.20;1.80;;;14.00;99.90;;;16.83;58.62;97902.56;4910902;29;20049;-46
2022/10/25 08:11:21;;;;;;;3.25;2.00;;;14.10;99.90;;;16.87;58.76;97901.97;4910625;29;20369;-47
2022/10/25 08:13:49;;;;;;;5.22;1.90;;;14.10;99.90;;;16.91;58.49;97903.25;4910798;29;20052;-48
2022/10/25 08:16:17;;;;;;;9.73;2.80;;;14.20;99.90;;;16.93;58.52;97903.88;4909876;29;20058;-48
2022/10/25 08:18:45;;;;;;;3.75;1.80;;;14.20;99.90;;;16.97;58.79;97903.50;4910637;29;20052;-49
2022/10/25 08:21:13;;;;;;;2.38;1.80;;;14.20;99.90;;;17.01;58.63;97899.41;4909824;29;20048;-48
2022/10/25 08:23:42;;;;;;;5.50;2.30;;;14.30;99.90;;;17.04;58.52;97899.84;4910705;29;20048;-47
2022/10/25 08:26:09;;;;;;;3.83;1.90;;;14.30;99.90;;;17.07;58.29;97904.81;4909707;29;20052;-48
2022/10/25 08:28:37;;;;;;;3.72;1.50;;;14.40;99.90;;;17.09;58.12;97899.25;4910609;29;20048;-50
2022/10/25 08:31:05;;;;;;;1.75;1.33;;;14.40;99.90;;;17.13;58.19;97901.31;4910628;29;20060;-47
2022/10/25 08:33:34;;;;;;;5.63;1.60;;;14.40;99.90;;;17.18;58.39;97903.44;4920924;29;20055;-49
2022/10/25 08:36:02;;;;;;;7.72;1.75;;;14.40;99.90;;;17.21;58.30;97910.28;4911669;29;20062;-47
2022/10/25 08:38:30;;;;;;;3.42;1.50;;;14.50;99.90;;;17.25;58.42;97907.00;4909749;29;20063;-49
2022/10/25 08:41:25;;;;;;;3.83;1.50;;;14.50;99.90;;;17.30;58.33;97901.84;4910015;29;20052;-50
2022/10/25 08:44:41;;;;;;;5.20;2.10;;;14.60;99.90;;;17.35;58.40;97905.81;4910003;29;20074;-48
2022/10/25 08:47:26;;;;;;;4.80;1.48;;;14.60;99.90;;;17.39;58.09;97912.44;4909701;29;20053;-47
2022/10/25 08:50:04;;;;;;;6.32;1.67;;;14.70;99.90;;;17.41;58.15;97908.56;4895036;29;20246;-53
2022/10/25 08:52:46;;;;;;;5.85;2.00;;;14.70;99.90;;;17.48;58.05;97900.50;4909561;29;20061;-47
2022/10/25 08:55:25;;;;;;;6.45;3.25;;;14.80;99.90;;;17.50;57.78;97901.13;4894172;29;20056;-49
2022/10/25 08:57:53;;;;;;;2.45;1.50;;;14.80;99.90;;;17.51;58.00;97903.63;4909235;29;20056;-47
2022/10/25 09:00:23;;;;;;;2.80;2.17;;;14.80;99.90;;;17.57;58.18;97903.88;4910038;29;20058;-47
2022/10/25 09:02:55;;;;;;;3.17;1.40;;;14.90;99.90;;;17.61;57.96;97902.44;4909637;29;20242;-49
2022/10/25 09:05:34;;;;;;;6.07;1.90;;;14.90;99.90;;;17.65;57.87;97906.38;4909398;29;20044;-47
2022/10/25 09:08:43;;;;;;;3.47;1.67;;;14.90;99.90;;;17.68;57.98;97911.34;4909544;29;20044;-47
2022/10/25 09:11:53;;;;;;;2.42;1.40;;;15.00;99.90;;;17.73;57.86;97910.78;4895669;29;20052;-47
2022/10/25 09:15:15;;;;;;;2.03;1.30;;;15.00;99.90;;;17.76;57.66;97911.22;4909132;29;20048;-48
2022/10/25 09:17:50;;;;;;;4.13;1.60;;;15.10;99.90;;;17.82;57.57;97917.66;4897864;29;20060;-47
2022/10/25 09:20:34;;;;;;;2.97;1.70;;;15.10;99.90;;;17.86;57.62;97913.56;4909250;29;20052;-47
2022/10/25 09:23:17;;;;;;;2.45;1.98;;;15.10;99.90;;;17.92;57.46;97917.31;4894033;29;20061;-47
2022/10/25 09:26:11;;;;;;;6.00;1.60;;;15.20;99.90;;;17.95;57.48;97920.44;4893070;29;20040;-48
2022/10/25 09:28:46;;;;;;;;;;;15.30;99.90;;;18.12;57.33;97918.19;4909602;29;20052;-49
2022/10/25 09:31:21;;;;;;;5.50;2.78;;;15.30;99.90;;;18.15;56.91;97919.66;4909211;29;19919;-48
2022/10/25 09:33:58;;;;;;;6.88;2.15;;;15.40;99.90;;;18.19;56.74;97918.22;4921929;29;20048;-49
2022/10/25 09:37:17;;;;;;;4.00;1.80;;;15.50;99.90;;;18.30;57.22;97918.47;4890031;29;20078;-47
2022/10/25 09:40:03;;;;;;;4.70;1.83;;;15.60;99.90;;;18.50;56.88;97921.19;4890096;29;20045;-50
2022/10/25 09:43:15;;;;;;;2.90;1.67;;;15.80;99.90;;;18.66;56.97;97911.03;4874692;29;20049;-50
2022/10/25 09:45:57;;;;;;;5.35;1.98;;;15.90;99.90;;;18.87;56.35;97913.56;4889698;29;20045;-52
2022/10/25 09:48:37;;;;;;;2.78;1.30;;;16.20;99.90;;;19.02;56.35;97913.34;4872461;29;20231;-50
2022/10/25 09:51:20;;;;;;;5.45;1.50;;;16.40;99.90;;;19.14;56.05;97918.13;4890209;29;20064;-49
2022/10/25 09:53:49;;;;;;;3.42;1.80;;;16.50;99.90;;;19.15;54.97;97914.38;4874670;29;20056;-50
2022/10/25 09:56:17;;;;;;;5.00;1.45;;;16.50;97.20;;;19.21;54.78;97917.09;4889354;29;20347;-49
2022/10/25 09:58:46;;;;;;;4.88;1.42;;;16.60;97.80;;;19.14;55.07;97921.66;4873776;29;20053;-47
2022/10/25 10:01:25;;;;;;;7.18;1.80;;;16.50;97.00;;;19.11;55.27;97913.13;4889794;29;20048;-48
2022/10/25 10:04:05;;;;;;;4.35;1.58;;;16.50;98.40;;;19.13;55.56;97932.66;4890158;29;20068;-47
2022/10/25 10:06:38;;;;;;;3.55;1.55;;;16.40;99.90;;;19.15;55.42;97927.88;4873654;29;20338;-48
2022/10/25 10:09:10;;;;;;;3.17;1.65;;;16.40;99.90;;;19.13;55.29;97925.38;4874115;29;20075;-49
2022/10/25 10:11:39;;;;;;;3.72;1.90;;;16.30;99.30;;;19.04;54.94;97919.38;4889754;29;20053;-50
2022/10/25 10:14:39;;;;;;;6.88;1.63;;;16.20;97.00;;;18.91;55.16;97922.06;4873339;29;20056;-51
2022/10/25 10:17:15;;;;;;;4.45;1.55;;;16.10;98.90;;;18.89;55.04;97927.66;4873902;29;20240;-49
2022/10/25 10:19:43;;;;;;;4.28;1.70;;;16.00;99.50;;;18.80;55.24;97928.09;4873416;29;20259;-51
2022/10/25 10:22:15;;;;;;;4.30;2.13;;;15.90;99.90;;;18.76;55.32;97924.94;4889505;29;20053;-50
2022/10/25 10:25:01;;;;;;;4.43;1.38;;;15.80;99.90;;;18.71;55.45;97922.03;4873059;29;20049;-48
2022/10/25 10:27:32;;;;;;;2.45;1.40;;;15.80;99.90;;;18.66;55.43;97922.66;4890750;29;20247;-51
2022/10/25 10:30:06;;;;;;;6.47;1.98;;;15.80;99.90;;;18.62;55.40;97917.88;4888773;29;20250;-48
2022/10/25 10:32:39;;;;;;;3.75;1.60;;;15.80;99.90;;;18.60;55.50;97918.09;4895664;29;20048;-48
2022/10/25 10:35:30;;;;;;;2.30;1.40;;;15.80;99.90;;;18.60;55.55;97915.38;4916481;29;20064;-49
2022/10/25 10:38:26;;;;;;;5.03;2.25;;;15.80;99.90;;;18.60;55.67;97911.88;4907923;29;20055;-47
2022/10/25 10:41:23;;;;;;;4.40;1.80;;;15.70;99.90;;;18.58;55.68;97903.97;4907917;29;20052;-51
2022/10/25 10:44:12;;;;;;;7.18;1.67;;;15.80;99.90;;;18.62;55.74;97909.78;4892135;29;20057;-47
2022/10/25 10:46:48;;;;;;;5.32;2.58;;;15.80;99.90;;;18.65;55.75;97910.22;4907995;29;20063;-45
2022/10/25 10:49:16;;;;;;;3.72;1.40;;;15.80;99.90;;;18.65;55.72;97910.22;4907883;29;20052;-49
2022/10/25 10:51:45;;;;;;;6.00;2.05;;;15.90;99.90;;;18.68;55.79;97898.19;4907778;29;20062;-49